sensor_id;sensor_type;location;lat;lon;timestamp;P1;durP1;ratioP1;P2;durP2;ratioP2
12334;SDS011;6233;51.560;9.986;2023-02-28T00:00:02;1.40;;;1.30;;
12334;SDS011;6233;51.560;9.986;2023-02-28T00:03:11;1.20;;;1.20;;
12334;SDS011;6233;51.560;9.986;2023-02-28T00:06:12;1.67;;;1.57;;
12334;SDS011;6233;51.560;9.986;2023-02-28T00:09:14;1.70;;;1.60;;
12334;SDS011;6233;51.560;9.986;2023-02-28T00:12:16;1.57;;;1.47;;
12334;SDS011;6233;51.560;9.986;2023-02-28T00:15:18;1.90;;;1.80;;
12334;SDS011;6233;51.560;9.986;2023-02-28T00:18:20;2.30;;;1.60;;
12334;SDS011;6233;51.560;9.986;2023-02-28T00:21:21;2.17;;;1.47;;
12334;SDS011;6233;51.560;9.986;2023-02-28T00:24:23;1.60;;;1.50;;
12334;SDS011;6233;51.560;9.986;2023-02-28T00:27:25;1.87;;;1.50;;
12334;SDS011;6233;51.560;9.986;2023-02-28T00:30:27;2.17;;;1.53;;
12334;SDS011;6233;51.560;9.986;2023-02-28T00:33:28;1.53;;;1.43;;
12334;SDS011;6233;51.560;9.986;2023-02-28T00:36:30;1.63;;;1.53;;
12334;SDS011;6233;51.560;9.986;2023-02-28T00:39:35;1.50;;;1.40;;
12334;SDS011;6233;51.560;9.986;2023-02-28T00:42:38;1.43;;;1.33;;
12334;SDS011;6233;51.560;9.986;2023-02-28T00:45:40;1.53;;;1.30;;
12334;SDS011;6233;51.560;9.986;2023-02-28T00:48:41;1.53;;;1.40;;
12334;SDS011;6233;51.560;9.986;2023-02-28T00:51:43;1.50;;;1.40;;
12334;SDS011;6233;51.560;9.986;2023-02-28T00:54:45;1.40;;;1.30;;
12334;SDS011;6233;51.560;9.986;2023-02-28T00:57:47;1.90;;;1.40;;
12334;SDS011;6233;51.560;9.986;2023-02-28T01:00:48;2.00;;;1.20;;
12334;SDS011;6233;51.560;9.986;2023-02-28T01:03:51;1.60;;;1.50;;
12334;SDS011;6233;51.560;9.986;2023-02-28T01:06:53;1.40;;;1.30;;
12334;SDS011;6233;51.560;9.986;2023-02-28T01:09:54;3.20;;;1.67;;
12334;SDS011;6233;51.560;9.986;2023-02-28T01:12:56;1.10;;;1.10;;
12334;SDS011;6233;51.560;9.986;2023-02-28T01:15:58;1.53;;;1.43;;
12334;SDS011;6233;51.560;9.986;2023-02-28T01:19:00;1.57;;;1.40;;
12334;SDS011;6233;51.560;9.986;2023-02-28T01:22:05;1.20;;;1.20;;
12334;SDS011;6233;51.560;9.986;2023-02-28T01:25:07;1.40;;;1.30;;
12334;SDS011;6233;51.560;9.986;2023-02-28T01:28:09;1.83;;;1.30;;
12334;SDS011;6233;51.560;9.986;2023-02-28T01:31:11;2.20;;;1.60;;
12334;SDS011;6233;51.560;9.986;2023-02-28T01:34:13;1.60;;;1.50;;
12334;SDS011;6233;51.560;9.986;2023-02-28T01:37:15;1.80;;;1.70;;
12334;SDS011;6233;51.560;9.986;2023-02-28T01:40:16;2.20;;;1.47;;
12334;SDS011;6233;51.560;9.986;2023-02-28T01:43:28;1.60;;;1.50;;
12334;SDS011;6233;51.560;9.986;2023-02-28T01:46:53;1.80;;;1.70;;
12334;SDS011;6233;51.560;9.986;2023-02-28T01:49:55;1.90;;;1.50;;
12334;SDS011;6233;51.560;9.986;2023-02-28T01:52:58;2.77;;;1.80;;
12334;SDS011;6233;51.560;9.986;2023-02-28T01:56:05;2.00;;;1.90;;
12334;SDS011;6233;51.560;9.986;2023-02-28T01:59:09;1.70;;;1.60;;
12334;SDS011;6233;51.560;9.986;2023-02-28T02:02:14;2.63;;;1.50;;
12334;SDS011;6233;51.560;9.986;2023-02-28T02:05:20;1.87;;;1.77;;
12334;SDS011;6233;51.560;9.986;2023-02-28T02:08:24;1.60;;;1.50;;
12334;SDS011;6233;51.560;9.986;2023-02-28T02:11:28;2.43;;;1.87;;
12334;SDS011;6233;51.560;9.986;2023-02-28T02:14:43;2.00;;;1.67;;
12334;SDS011;6233;51.560;9.986;2023-02-28T02:17:57;2.23;;;1.83;;
12334;SDS011;6233;51.560;9.986;2023-02-28T02:28:06;1.53;;;1.47;;
12334;SDS011;6233;51.560;9.986;2023-02-28T02:31:57;2.27;;;1.67;;
12334;SDS011;6233;51.560;9.986;2023-02-28T02:39:06;1.60;;;1.50;;
12334;SDS011;6233;51.560;9.986;2023-02-28T02:46:09;1.80;;;1.50;;
12334;SDS011;6233;51.560;9.986;2023-02-28T02:49:16;1.70;;;1.60;;
12334;SDS011;6233;51.560;9.986;2023-02-28T02:52:31;1.67;;;1.50;;
12334;SDS011;6233;51.560;9.986;2023-02-28T02:55:39;1.80;;;1.67;;
12334;SDS011;6233;51.560;9.986;2023-02-28T02:58:44;2.23;;;1.60;;
12334;SDS011;6233;51.560;9.986;2023-02-28T03:01:52;2.33;;;1.93;;
12334;SDS011;6233;51.560;9.986;2023-02-28T03:04:58;2.10;;;2.00;;
12334;SDS011;6233;51.560;9.986;2023-02-28T03:08:03;2.30;;;2.10;;
12334;SDS011;6233;51.560;9.986;2023-02-28T03:11:09;1.87;;;1.77;;
12334;SDS011;6233;51.560;9.986;2023-02-28T03:24:08;1.97;;;1.83;;
12334;SDS011;6233;51.560;9.986;2023-02-28T03:27:23;1.67;;;1.50;;
12334;SDS011;6233;51.560;9.986;2023-02-28T03:30:39;2.00;;;1.80;;
12334;SDS011;6233;51.560;9.986;2023-02-28T03:37:10;2.07;;;1.50;;
12334;SDS011;6233;51.560;9.986;2023-02-28T03:40:17;2.43;;;1.83;;
12334;SDS011;6233;51.560;9.986;2023-02-28T03:43:24;1.70;;;1.60;;
12334;SDS011;6233;51.560;9.986;2023-02-28T03:46:30;1.90;;;1.50;;
12334;SDS011;6233;51.560;9.986;2023-02-28T03:49:44;1.70;;;1.50;;
12334;SDS011;6233;51.560;9.986;2023-02-28T03:53:00;1.83;;;1.60;;
12334;SDS011;6233;51.560;9.986;2023-02-28T03:56:19;3.33;;;2.23;;
12334;SDS011;6233;51.560;9.986;2023-02-28T03:59:26;1.77;;;1.50;;
12334;SDS011;6233;51.560;9.986;2023-02-28T04:02:40;2.03;;;1.80;;
12334;SDS011;6233;51.560;9.986;2023-02-28T04:05:52;2.27;;;1.60;;
12334;SDS011;6233;51.560;9.986;2023-02-28T04:08:55;1.73;;;1.60;;
12334;SDS011;6233;51.560;9.986;2023-02-28T04:11:57;3.33;;;1.70;;
12334;SDS011;6233;51.560;9.986;2023-02-28T04:14:59;2.77;;;2.03;;
12334;SDS011;6233;51.560;9.986;2023-02-28T04:18:00;1.90;;;1.70;;
12334;SDS011;6233;51.560;9.986;2023-02-28T04:21:02;1.60;;;1.50;;
12334;SDS011;6233;51.560;9.986;2023-02-28T04:24:04;5.03;;;3.20;;
12334;SDS011;6233;51.560;9.986;2023-02-28T04:27:08;4.57;;;3.17;;
12334;SDS011;6233;51.560;9.986;2023-02-28T04:30:10;1.67;;;1.57;;
12334;SDS011;6233;51.560;9.986;2023-02-28T04:33:13;2.33;;;1.90;;
12334;SDS011;6233;51.560;9.986;2023-02-28T04:36:15;2.83;;;1.77;;
12334;SDS011;6233;51.560;9.986;2023-02-28T04:39:18;1.60;;;1.43;;
12334;SDS011;6233;51.560;9.986;2023-02-28T04:42:21;1.60;;;1.50;;
12334;SDS011;6233;51.560;9.986;2023-02-28T04:45:22;1.87;;;1.77;;
12334;SDS011;6233;51.560;9.986;2023-02-28T04:48:24;1.50;;;1.40;;
12334;SDS011;6233;51.560;9.986;2023-02-28T04:51:29;1.77;;;1.60;;
12334;SDS011;6233;51.560;9.986;2023-02-28T04:54:31;1.60;;;1.50;;
12334;SDS011;6233;51.560;9.986;2023-02-28T04:57:33;1.30;;;1.20;;
12334;SDS011;6233;51.560;9.986;2023-02-28T05:00:35;1.73;;;1.57;;
12334;SDS011;6233;51.560;9.986;2023-02-28T05:03:36;3.33;;;1.73;;
12334;SDS011;6233;51.560;9.986;2023-02-28T05:06:38;1.97;;;1.77;;
12334;SDS011;6233;51.560;9.986;2023-02-28T05:09:40;1.73;;;1.53;;
12334;SDS011;6233;51.560;9.986;2023-02-28T05:12:41;2.30;;;1.60;;
12334;SDS011;6233;51.560;9.986;2023-02-28T05:15:43;1.80;;;1.70;;
12334;SDS011;6233;51.560;9.986;2023-02-28T05:18:45;1.80;;;1.70;;
12334;SDS011;6233;51.560;9.986;2023-02-28T05:21:49;1.93;;;1.73;;
12334;SDS011;6233;51.560;9.986;2023-02-28T05:24:53;2.93;;;1.87;;
12334;SDS011;6233;51.560;9.986;2023-02-28T05:27:55;3.53;;;2.00;;
12334;SDS011;6233;51.560;9.986;2023-02-28T05:30:56;2.30;;;2.03;;
12334;SDS011;6233;51.560;9.986;2023-02-28T05:33:58;2.07;;;1.87;;
12334;SDS011;6233;51.560;9.986;2023-02-28T05:37:00;2.27;;;1.90;;
12334;SDS011;6233;51.560;9.986;2023-02-28T05:40:02;1.73;;;1.63;;
12334;SDS011;6233;51.560;9.986;2023-02-28T05:43:11;2.17;;;1.97;;
12334;SDS011;6233;51.560;9.986;2023-02-28T05:46:13;2.07;;;1.60;;
12334;SDS011;6233;51.560;9.986;2023-02-28T05:49:15;4.27;;;2.00;;
12334;SDS011;6233;51.560;9.986;2023-02-28T05:52:17;2.30;;;1.63;;
12334;SDS011;6233;51.560;9.986;2023-02-28T05:55:19;2.67;;;1.70;;
12334;SDS011;6233;51.560;9.986;2023-02-28T05:58:20;2.37;;;1.50;;
12334;SDS011;6233;51.560;9.986;2023-02-28T06:01:44;1.80;;;1.70;;
12334;SDS011;6233;51.560;9.986;2023-02-28T06:04:49;2.70;;;1.93;;
12334;SDS011;6233;51.560;9.986;2023-02-28T06:07:51;1.93;;;1.67;;
12334;SDS011;6233;51.560;9.986;2023-02-28T06:10:53;2.03;;;1.93;;
12334;SDS011;6233;51.560;9.986;2023-02-28T06:13:55;1.87;;;1.63;;
12334;SDS011;6233;51.560;9.986;2023-02-28T06:16:58;2.20;;;2.00;;
12334;SDS011;6233;51.560;9.986;2023-02-28T06:20:01;1.70;;;1.60;;
12334;SDS011;6233;51.560;9.986;2023-02-28T06:23:03;1.63;;;1.53;;
12334;SDS011;6233;51.560;9.986;2023-02-28T06:26:05;1.90;;;1.80;;
12334;SDS011;6233;51.560;9.986;2023-02-28T06:29:07;2.43;;;2.00;;
12334;SDS011;6233;51.560;9.986;2023-02-28T06:32:09;2.97;;;1.90;;
12334;SDS011;6233;51.560;9.986;2023-02-28T06:35:10;1.93;;;1.53;;
12334;SDS011;6233;51.560;9.986;2023-02-28T06:38:12;1.83;;;1.73;;
12334;SDS011;6233;51.560;9.986;2023-02-28T06:41:14;2.27;;;1.80;;
12334;SDS011;6233;51.560;9.986;2023-02-28T06:44:16;2.93;;;2.13;;
12334;SDS011;6233;51.560;9.986;2023-02-28T06:47:18;2.00;;;1.80;;
12334;SDS011;6233;51.560;9.986;2023-02-28T06:50:20;1.83;;;1.57;;
12334;SDS011;6233;51.560;9.986;2023-02-28T06:53:22;1.60;;;1.50;;
12334;SDS011;6233;51.560;9.986;2023-02-28T06:56:23;2.07;;;1.90;;
12334;SDS011;6233;51.560;9.986;2023-02-28T06:59:25;2.00;;;1.90;;
12334;SDS011;6233;51.560;9.986;2023-02-28T07:02:27;3.10;;;2.20;;
12334;SDS011;6233;51.560;9.986;2023-02-28T07:05:29;3.10;;;2.20;;
12334;SDS011;6233;51.560;9.986;2023-02-28T07:08:31;3.20;;;2.37;;
12334;SDS011;6233;51.560;9.986;2023-02-28T07:11:33;1.80;;;1.70;;
12334;SDS011;6233;51.560;9.986;2023-02-28T07:14:36;3.53;;;2.17;;
12334;SDS011;6233;51.560;9.986;2023-02-28T07:17:38;3.40;;;2.07;;
12334;SDS011;6233;51.560;9.986;2023-02-28T07:20:40;2.63;;;1.70;;
12334;SDS011;6233;51.560;9.986;2023-02-28T07:23:42;2.87;;;2.30;;
12334;SDS011;6233;51.560;9.986;2023-02-28T07:26:44;2.57;;;2.33;;
12334;SDS011;6233;51.560;9.986;2023-02-28T07:29:45;2.47;;;1.97;;
12334;SDS011;6233;51.560;9.986;2023-02-28T07:32:47;2.43;;;2.10;;
12334;SDS011;6233;51.560;9.986;2023-02-28T07:35:49;2.60;;;2.07;;
12334;SDS011;6233;51.560;9.986;2023-02-28T07:38:51;2.37;;;2.17;;
12334;SDS011;6233;51.560;9.986;2023-02-28T07:41:53;2.43;;;2.00;;
12334;SDS011;6233;51.560;9.986;2023-02-28T07:44:54;3.63;;;2.77;;
12334;SDS011;6233;51.560;9.986;2023-02-28T07:47:57;2.80;;;2.10;;
12334;SDS011;6233;51.560;9.986;2023-02-28T07:50:59;3.00;;;2.70;;
12334;SDS011;6233;51.560;9.986;2023-02-28T07:54:01;3.93;;;2.27;;
12334;SDS011;6233;51.560;9.986;2023-02-28T07:57:03;2.43;;;2.23;;
12334;SDS011;6233;51.560;9.986;2023-02-28T08:00:06;2.60;;;2.40;;
12334;SDS011;6233;51.560;9.986;2023-02-28T08:03:13;3.50;;;2.50;;
12334;SDS011;6233;51.560;9.986;2023-02-28T08:06:16;3.43;;;2.77;;
12334;SDS011;6233;51.560;9.986;2023-02-28T08:09:22;2.60;;;2.40;;
12334;SDS011;6233;51.560;9.986;2023-02-28T08:12:24;2.80;;;2.60;;
12334;SDS011;6233;51.560;9.986;2023-02-28T08:15:26;3.40;;;2.93;;
12334;SDS011;6233;51.560;9.986;2023-02-28T08:18:28;3.07;;;2.60;;
12334;SDS011;6233;51.560;9.986;2023-02-28T08:21:29;3.57;;;2.80;;
12334;SDS011;6233;51.560;9.986;2023-02-28T08:24:32;3.13;;;2.80;;
12334;SDS011;6233;51.560;9.986;2023-02-28T08:27:34;3.53;;;2.90;;
12334;SDS011;6233;51.560;9.986;2023-02-28T08:30:37;5.03;;;3.20;;
12334;SDS011;6233;51.560;9.986;2023-02-28T08:33:39;3.83;;;3.17;;
12334;SDS011;6233;51.560;9.986;2023-02-28T08:36:41;3.30;;;2.60;;
12334;SDS011;6233;51.560;9.986;2023-02-28T08:39:46;4.20;;;3.27;;
12334;SDS011;6233;51.560;9.986;2023-02-28T08:42:48;4.83;;;3.40;;
12334;SDS011;6233;51.560;9.986;2023-02-28T08:45:51;3.53;;;3.13;;
12334;SDS011;6233;51.560;9.986;2023-02-28T08:48:54;3.80;;;3.10;;
12334;SDS011;6233;51.560;9.986;2023-02-28T08:51:57;4.83;;;3.67;;
12334;SDS011;6233;51.560;9.986;2023-02-28T08:54:59;4.00;;;3.57;;
12334;SDS011;6233;51.560;9.986;2023-02-28T08:58:01;3.97;;;3.27;;
12334;SDS011;6233;51.560;9.986;2023-02-28T09:01:17;5.97;;;3.67;;
12334;SDS011;6233;51.560;9.986;2023-02-28T09:04:20;3.80;;;3.40;;
12334;SDS011;6233;51.560;9.986;2023-02-28T09:07:26;5.87;;;3.77;;
12334;SDS011;6233;51.560;9.986;2023-02-28T09:10:28;4.77;;;3.30;;
12334;SDS011;6233;51.560;9.986;2023-02-28T09:13:30;5.37;;;3.63;;
12334;SDS011;6233;51.560;9.986;2023-02-28T09:16:33;3.80;;;3.40;;
12334;SDS011;6233;51.560;9.986;2023-02-28T09:19:41;4.37;;;3.67;;
12334;SDS011;6233;51.560;9.986;2023-02-28T09:22:43;3.33;;;3.03;;
12334;SDS011;6233;51.560;9.986;2023-02-28T09:25:48;4.20;;;3.33;;
12334;SDS011;6233;51.560;9.986;2023-02-28T09:28:51;3.33;;;2.97;;
12334;SDS011;6233;51.560;9.986;2023-02-28T09:31:54;3.77;;;3.00;;
12334;SDS011;6233;51.560;9.986;2023-02-28T09:34:55;3.63;;;3.10;;
12334;SDS011;6233;51.560;9.986;2023-02-28T09:37:57;4.07;;;3.43;;
12334;SDS011;6233;51.560;9.986;2023-02-28T09:41:03;3.23;;;2.93;;
12334;SDS011;6233;51.560;9.986;2023-02-28T09:44:15;4.13;;;3.33;;
12334;SDS011;6233;51.560;9.986;2023-02-28T09:47:40;3.93;;;2.97;;
12334;SDS011;6233;51.560;9.986;2023-02-28T09:50:46;3.50;;;3.20;;
12334;SDS011;6233;51.560;9.986;2023-02-28T09:53:51;4.13;;;3.20;;
12334;SDS011;6233;51.560;9.986;2023-02-28T09:57:21;3.70;;;3.30;;
12334;SDS011;6233;51.560;9.986;2023-02-28T10:00:39;4.70;;;3.80;;
12334;SDS011;6233;51.560;9.986;2023-02-28T10:03:58;3.70;;;3.40;;
12334;SDS011;6233;51.560;9.986;2023-02-28T10:07:53;3.83;;;3.40;;
12334;SDS011;6233;51.560;9.986;2023-02-28T10:11:06;4.07;;;3.67;;
12334;SDS011;6233;51.560;9.986;2023-02-28T10:14:15;4.20;;;3.80;;
12334;SDS011;6233;51.560;9.986;2023-02-28T10:17:22;3.63;;;3.33;;
12334;SDS011;6233;51.560;9.986;2023-02-28T10:20:35;5.03;;;3.57;;
12334;SDS011;6233;51.560;9.986;2023-02-28T10:23:40;4.13;;;3.73;;
12334;SDS011;6233;51.560;9.986;2023-02-28T10:26:43;5.43;;;3.90;;
12334;SDS011;6233;51.560;9.986;2023-02-28T10:29:50;4.37;;;3.60;;
12334;SDS011;6233;51.560;9.986;2023-02-28T10:32:53;4.23;;;3.67;;
12334;SDS011;6233;51.560;9.986;2023-02-28T10:35:55;4.43;;;3.73;;
12334;SDS011;6233;51.560;9.986;2023-02-28T10:38:57;3.50;;;3.20;;
12334;SDS011;6233;51.560;9.986;2023-02-28T10:42:00;4.23;;;3.33;;
12334;SDS011;6233;51.560;9.986;2023-02-28T10:51:33;4.37;;;3.70;;
12334;SDS011;6233;51.560;9.986;2023-02-28T10:54:37;4.27;;;3.87;;
12334;SDS011;6233;51.560;9.986;2023-02-28T10:57:39;5.67;;;3.63;;
12334;SDS011;6233;51.560;9.986;2023-02-28T11:00:40;4.70;;;3.90;;
12334;SDS011;6233;51.560;9.986;2023-02-28T11:03:42;4.93;;;4.00;;
12334;SDS011;6233;51.560;9.986;2023-02-28T11:06:44;4.87;;;3.77;;
12334;SDS011;6233;51.560;9.986;2023-02-28T11:10:05;5.30;;;3.93;;
12334;SDS011;6233;51.560;9.986;2023-02-28T11:13:12;4.13;;;3.73;;
12334;SDS011;6233;51.560;9.986;2023-02-28T11:16:19;4.63;;;3.87;;
12334;SDS011;6233;51.560;9.986;2023-02-28T11:19:22;5.00;;;4.50;;
12334;SDS011;6233;51.560;9.986;2023-02-28T11:22:28;4.20;;;3.67;;
12334;SDS011;6233;51.560;9.986;2023-02-28T11:25:36;4.57;;;3.90;;
12334;SDS011;6233;51.560;9.986;2023-02-28T11:28:40;4.60;;;4.03;;
12334;SDS011;6233;51.560;9.986;2023-02-28T11:31:43;4.23;;;3.80;;
12334;SDS011;6233;51.560;9.986;2023-02-28T11:34:45;4.10;;;3.70;;
12334;SDS011;6233;51.560;9.986;2023-02-28T11:38:00;3.90;;;3.50;;
12334;SDS011;6233;51.560;9.986;2023-02-28T11:55:14;3.87;;;3.50;;
12334;SDS011;6233;51.560;9.986;2023-02-28T11:58:25;4.20;;;3.77;;
12334;SDS011;6233;51.560;9.986;2023-02-28T12:11:33;3.97;;;3.67;;
12334;SDS011;6233;51.560;9.986;2023-02-28T12:18:51;4.27;;;3.63;;
12334;SDS011;6233;51.560;9.986;2023-02-28T12:22:32;4.30;;;3.73;;
12334;SDS011;6233;51.560;9.986;2023-02-28T12:25:52;4.37;;;3.97;;
12334;SDS011;6233;51.560;9.986;2023-02-28T12:29:17;3.87;;;3.37;;
12334;SDS011;6233;51.560;9.986;2023-02-28T12:32:57;3.27;;;2.97;;
12334;SDS011;6233;51.560;9.986;2023-02-28T12:36:09;12.47;;;4.37;;
12334;SDS011;6233;51.560;9.986;2023-02-28T12:39:21;3.43;;;3.13;;
12334;SDS011;6233;51.560;9.986;2023-02-28T12:42:32;5.07;;;3.73;;
12334;SDS011;6233;51.560;9.986;2023-02-28T12:45:44;3.63;;;3.33;;
12334;SDS011;6233;51.560;9.986;2023-02-28T12:48:53;3.93;;;3.60;;
12334;SDS011;6233;51.560;9.986;2023-02-28T12:52:02;4.33;;;3.70;;
12334;SDS011;6233;51.560;9.986;2023-02-28T12:58:33;4.33;;;3.60;;
12334;SDS011;6233;51.560;9.986;2023-02-28T13:01:42;4.57;;;3.70;;
12334;SDS011;6233;51.560;9.986;2023-02-28T13:08:25;5.30;;;3.93;;
12334;SDS011;6233;51.560;9.986;2023-02-28T13:11:38;4.63;;;3.97;;
12334;SDS011;6233;51.560;9.986;2023-02-28T13:14:42;5.10;;;4.03;;
12334;SDS011;6233;51.560;9.986;2023-02-28T13:36:30;4.23;;;3.83;;
12334;SDS011;6233;51.560;9.986;2023-02-28T13:50:33;4.73;;;3.67;;
12334;SDS011;6233;51.560;9.986;2023-02-28T13:53:46;4.30;;;3.90;;
12334;SDS011;6233;51.560;9.986;2023-02-28T14:11:28;4.13;;;3.73;;
12334;SDS011;6233;51.560;9.986;2023-02-28T14:17:37;4.33;;;3.93;;
12334;SDS011;6233;51.560;9.986;2023-02-28T14:20:54;5.47;;;4.30;;
12334;SDS011;6233;51.560;9.986;2023-02-28T14:27:11;5.27;;;3.70;;
12334;SDS011;6233;51.560;9.986;2023-02-28T14:30:36;8.47;;;4.73;;
12334;SDS011;6233;51.560;9.986;2023-02-28T14:41:06;6.40;;;4.53;;
12334;SDS011;6233;51.560;9.986;2023-02-28T14:44:31;5.43;;;4.77;;
12334;SDS011;6233;51.560;9.986;2023-02-28T14:47:33;6.60;;;4.33;;
12334;SDS011;6233;51.560;9.986;2023-02-28T14:50:37;5.23;;;4.40;;
12334;SDS011;6233;51.560;9.986;2023-02-28T14:53:39;6.13;;;5.27;;
12334;SDS011;6233;51.560;9.986;2023-02-28T14:56:41;7.00;;;5.00;;
12334;SDS011;6233;51.560;9.986;2023-02-28T15:20:31;6.57;;;4.97;;
12334;SDS011;6233;51.560;9.986;2023-02-28T15:23:36;6.27;;;5.10;;
12334;SDS011;6233;51.560;9.986;2023-02-28T15:26:46;6.53;;;5.50;;
12334;SDS011;6233;51.560;9.986;2023-02-28T15:36:53;6.87;;;4.87;;
12334;SDS011;6233;51.560;9.986;2023-02-28T15:43:37;6.27;;;5.40;;
12334;SDS011;6233;51.560;9.986;2023-02-28T15:50:22;13.20;;;7.30;;
12334;SDS011;6233;51.560;9.986;2023-02-28T15:53:25;10.67;;;6.43;;
12334;SDS011;6233;51.560;9.986;2023-02-28T15:56:31;5.87;;;5.30;;
12334;SDS011;6233;51.560;9.986;2023-02-28T15:59:36;6.13;;;5.33;;
12334;SDS011;6233;51.560;9.986;2023-02-28T16:02:38;7.23;;;6.00;;
12334;SDS011;6233;51.560;9.986;2023-02-28T16:05:41;6.23;;;5.60;;
12334;SDS011;6233;51.560;9.986;2023-02-28T16:08:42;7.97;;;5.43;;
12334;SDS011;6233;51.560;9.986;2023-02-28T16:11:49;7.27;;;6.00;;
12334;SDS011;6233;51.560;9.986;2023-02-28T16:14:54;5.93;;;5.30;;
12334;SDS011;6233;51.560;9.986;2023-02-28T16:17:58;5.50;;;5.00;;
12334;SDS011;6233;51.560;9.986;2023-02-28T16:21:00;5.60;;;5.00;;
12334;SDS011;6233;51.560;9.986;2023-02-28T16:24:01;6.00;;;5.40;;
12334;SDS011;6233;51.560;9.986;2023-02-28T16:27:03;7.17;;;5.33;;
12334;SDS011;6233;51.560;9.986;2023-02-28T16:30:06;6.67;;;5.10;;
12334;SDS011;6233;51.560;9.986;2023-02-28T16:33:16;8.03;;;5.40;;
12334;SDS011;6233;51.560;9.986;2023-02-28T16:36:19;6.90;;;5.20;;
12334;SDS011;6233;51.560;9.986;2023-02-28T16:39:23;6.93;;;5.50;;
12334;SDS011;6233;51.560;9.986;2023-02-28T16:42:25;6.70;;;5.20;;
12334;SDS011;6233;51.560;9.986;2023-02-28T16:45:29;8.37;;;6.03;;
12334;SDS011;6233;51.560;9.986;2023-02-28T16:48:30;6.93;;;5.90;;
12334;SDS011;6233;51.560;9.986;2023-02-28T16:51:33;6.63;;;5.23;;
12334;SDS011;6233;51.560;9.986;2023-02-28T16:54:36;8.20;;;5.50;;
12334;SDS011;6233;51.560;9.986;2023-02-28T16:57:38;6.90;;;5.97;;
12334;SDS011;6233;51.560;9.986;2023-02-28T17:00:40;7.83;;;5.27;;
12334;SDS011;6233;51.560;9.986;2023-02-28T17:03:42;6.23;;;5.50;;
12334;SDS011;6233;51.560;9.986;2023-02-28T17:06:44;7.13;;;5.80;;
12334;SDS011;6233;51.560;9.986;2023-02-28T17:09:46;6.17;;;5.50;;
12334;SDS011;6233;51.560;9.986;2023-02-28T17:12:48;5.87;;;5.27;;
12334;SDS011;6233;51.560;9.986;2023-02-28T17:15:50;6.53;;;5.60;;
12334;SDS011;6233;51.560;9.986;2023-02-28T17:18:53;7.47;;;5.83;;
12334;SDS011;6233;51.560;9.986;2023-02-28T17:21:57;8.13;;;5.67;;
12334;SDS011;6233;51.560;9.986;2023-02-28T17:24:59;6.53;;;5.60;;
12334;SDS011;6233;51.560;9.986;2023-02-28T17:28:01;6.67;;;5.57;;
12334;SDS011;6233;51.560;9.986;2023-02-28T17:31:02;8.50;;;6.17;;
12334;SDS011;6233;51.560;9.986;2023-02-28T17:34:04;6.90;;;6.00;;
12334;SDS011;6233;51.560;9.986;2023-02-28T17:37:07;9.97;;;6.00;;
12334;SDS011;6233;51.560;9.986;2023-02-28T17:40:14;8.23;;;5.70;;
12334;SDS011;6233;51.560;9.986;2023-02-28T17:43:18;8.63;;;6.20;;
12334;SDS011;6233;51.560;9.986;2023-02-28T17:46:20;8.73;;;6.37;;
12334;SDS011;6233;51.560;9.986;2023-02-28T17:49:24;7.63;;;5.90;;
12334;SDS011;6233;51.560;9.986;2023-02-28T17:52:30;7.63;;;5.93;;
12334;SDS011;6233;51.560;9.986;2023-02-28T17:55:32;7.60;;;6.30;;
12334;SDS011;6233;51.560;9.986;2023-02-28T17:58:35;7.37;;;6.20;;
12334;SDS011;6233;51.560;9.986;2023-02-28T18:01:37;7.70;;;6.33;;
12334;SDS011;6233;51.560;9.986;2023-02-28T18:04:39;7.30;;;6.60;;
12334;SDS011;6233;51.560;9.986;2023-02-28T18:07:41;7.83;;;5.73;;
12334;SDS011;6233;51.560;9.986;2023-02-28T18:10:43;9.43;;;6.43;;
12334;SDS011;6233;51.560;9.986;2023-02-28T18:13:45;8.73;;;6.90;;
12334;SDS011;6233;51.560;9.986;2023-02-28T18:16:56;7.03;;;6.17;;
12334;SDS011;6233;51.560;9.986;2023-02-28T18:19:58;7.50;;;5.80;;
12334;SDS011;6233;51.560;9.986;2023-02-28T18:23:00;8.27;;;6.80;;
12334;SDS011;6233;51.560;9.986;2023-02-28T18:26:06;8.27;;;6.40;;
12334;SDS011;6233;51.560;9.986;2023-02-28T18:29:08;7.10;;;6.40;;
12334;SDS011;6233;51.560;9.986;2023-02-28T18:32:18;9.10;;;6.70;;
12334;SDS011;6233;51.560;9.986;2023-02-28T18:35:19;9.30;;;6.77;;
12334;SDS011;6233;51.560;9.986;2023-02-28T18:38:37;7.57;;;6.40;;
12334;SDS011;6233;51.560;9.986;2023-02-28T18:41:40;9.57;;;6.27;;
12334;SDS011;6233;51.560;9.986;2023-02-28T18:44:44;7.43;;;6.03;;
12334;SDS011;6233;51.560;9.986;2023-02-28T18:47:46;7.83;;;5.87;;
12334;SDS011;6233;51.560;9.986;2023-02-28T18:50:51;9.13;;;6.83;;
12334;SDS011;6233;51.560;9.986;2023-02-28T18:53:53;7.27;;;6.57;;
12334;SDS011;6233;51.560;9.986;2023-02-28T18:56:55;8.10;;;6.23;;
12334;SDS011;6233;51.560;9.986;2023-02-28T18:59:56;7.43;;;5.93;;
12334;SDS011;6233;51.560;9.986;2023-02-28T19:02:58;7.93;;;6.50;;
12334;SDS011;6233;51.560;9.986;2023-02-28T19:06:01;9.70;;;6.53;;
12334;SDS011;6233;51.560;9.986;2023-02-28T19:09:03;7.33;;;6.33;;
12334;SDS011;6233;51.560;9.986;2023-02-28T19:12:05;8.00;;;6.27;;
12334;SDS011;6233;51.560;9.986;2023-02-28T19:15:08;8.57;;;6.50;;
12334;SDS011;6233;51.560;9.986;2023-02-28T19:18:11;8.60;;;6.63;;
12334;SDS011;6233;51.560;9.986;2023-02-28T19:21:14;8.00;;;6.20;;
12334;SDS011;6233;51.560;9.986;2023-02-28T19:24:17;7.00;;;6.20;;
12334;SDS011;6233;51.560;9.986;2023-02-28T19:27:20;6.97;;;6.27;;
12334;SDS011;6233;51.560;9.986;2023-02-28T19:30:22;8.63;;;6.60;;
12334;SDS011;6233;51.560;9.986;2023-02-28T19:33:24;9.13;;;6.50;;
12334;SDS011;6233;51.560;9.986;2023-02-28T19:36:26;9.20;;;6.40;;
12334;SDS011;6233;51.560;9.986;2023-02-28T19:39:29;7.67;;;6.73;;
12334;SDS011;6233;51.560;9.986;2023-02-28T19:42:41;7.40;;;6.60;;
12334;SDS011;6233;51.560;9.986;2023-02-28T19:45:42;7.70;;;5.63;;
12334;SDS011;6233;51.560;9.986;2023-02-28T19:48:44;7.30;;;5.90;;
12334;SDS011;6233;51.560;9.986;2023-02-28T19:51:46;8.47;;;6.90;;
12334;SDS011;6233;51.560;9.986;2023-02-28T19:54:48;8.53;;;6.67;;
12334;SDS011;6233;51.560;9.986;2023-02-28T19:57:50;8.83;;;6.30;;
12334;SDS011;6233;51.560;9.986;2023-02-28T20:00:51;8.77;;;6.83;;
12334;SDS011;6233;51.560;9.986;2023-02-28T20:03:54;8.47;;;6.70;;
12334;SDS011;6233;51.560;9.986;2023-02-28T20:06:55;9.43;;;7.00;;
12334;SDS011;6233;51.560;9.986;2023-02-28T20:09:58;7.77;;;6.53;;
12334;SDS011;6233;51.560;9.986;2023-02-28T20:13:00;7.60;;;6.80;;
12334;SDS011;6233;51.560;9.986;2023-02-28T20:16:02;11.63;;;7.23;;
12334;SDS011;6233;51.560;9.986;2023-02-28T20:19:10;8.73;;;7.33;;
12334;SDS011;6233;51.560;9.986;2023-02-28T20:22:11;11.80;;;6.63;;
12334;SDS011;6233;51.560;9.986;2023-02-28T20:25:13;8.53;;;6.23;;
12334;SDS011;6233;51.560;9.986;2023-02-28T20:28:18;9.67;;;7.63;;
12334;SDS011;6233;51.560;9.986;2023-02-28T20:31:22;12.73;;;9.00;;
12334;SDS011;6233;51.560;9.986;2023-02-28T20:34:25;10.67;;;7.50;;
12334;SDS011;6233;51.560;9.986;2023-02-28T20:37:27;8.97;;;7.00;;
12334;SDS011;6233;51.560;9.986;2023-02-28T20:40:29;8.00;;;6.60;;
12334;SDS011;6233;51.560;9.986;2023-02-28T20:43:30;7.47;;;6.47;;
12334;SDS011;6233;51.560;9.986;2023-02-28T20:46:32;8.53;;;6.70;;
12334;SDS011;6233;51.560;9.986;2023-02-28T20:49:35;11.17;;;7.27;;
12334;SDS011;6233;51.560;9.986;2023-02-28T20:52:37;9.23;;;6.87;;
12334;SDS011;6233;51.560;9.986;2023-02-28T20:55:39;9.80;;;7.33;;
12334;SDS011;6233;51.560;9.986;2023-02-28T21:03:03;8.83;;;6.63;;
12334;SDS011;6233;51.560;9.986;2023-02-28T21:06:05;9.07;;;6.90;;
12334;SDS011;6233;51.560;9.986;2023-02-28T21:09:10;10.73;;;7.30;;
12334;SDS011;6233;51.560;9.986;2023-02-28T21:12:13;11.47;;;7.10;;
12334;SDS011;6233;51.560;9.986;2023-02-28T21:15:15;8.57;;;7.50;;
12334;SDS011;6233;51.560;9.986;2023-02-28T21:18:18;8.30;;;6.43;;
12334;SDS011;6233;51.560;9.986;2023-02-28T21:21:20;9.27;;;6.77;;
12334;SDS011;6233;51.560;9.986;2023-02-28T21:24:24;9.97;;;7.37;;
12334;SDS011;6233;51.560;9.986;2023-02-28T21:27:26;12.20;;;8.03;;
12334;SDS011;6233;51.560;9.986;2023-02-28T21:30:38;9.17;;;6.50;;
12334;SDS011;6233;51.560;9.986;2023-02-28T21:33:39;9.20;;;7.27;;
12334;SDS011;6233;51.560;9.986;2023-02-28T21:36:42;10.50;;;7.07;;